sensor_id;sensor_type;location;lat;lon;timestamp;pressure;altitude;pressure_sealevel;temperature;humidity
49945;BME280;35838;49.134;9.212;2024-01-10T00:01:24;100868.53;;;-3.06;100.00
49945;BME280;35838;49.134;9.212;2024-01-10T00:02:58;100861.09;;;-3.03;100.00
49945;BME280;35838;49.134;9.212;2024-01-10T00:04:32;100875.09;;;-3.10;100.00
49945;BME280;35838;49.134;9.212;2024-01-10T00:06:06;100871.94;;;-3.06;100.00
49945;BME280;35838;49.134;9.212;2024-01-10T00:07:37;100858.09;;;-2.97;100.00
49945;BME280;35838;49.134;9.212;2024-01-10T00:09:10;100867.28;;;-3.00;100.00
49945;BME280;35838;49.134;9.212;2024-01-10T00:10:41;100849.47;;;-3.00;100.00
49945;BME280;35838;49.134;9.212;2024-01-10T00:12:15;100857.22;;;-2.98;100.00
49945;BME280;35838;49.134;9.212;2024-01-10T00:13:46;100858.00;;;-2.99;100.00
49945;BME280;35838;49.134;9.212;2024-01-10T00:15:20;100848.41;;;-3.03;100.00
49945;BME280;35838;49.134;9.212;2024-01-10T00:16:51;100855.16;;;-3.04;100.00
49945;BME280;35838;49.134;9.212;2024-01-10T00:18:24;100845.88;;;-3.03;100.00
49945;BME280;35838;49.134;9.212;2024-01-10T00:20:01;100862.47;;;-3.08;100.00
49945;BME280;35838;49.134;9.212;2024-01-10T00:21:32;100862.69;;;-3.05;100.00
49945;BME280;35838;49.134;9.212;2024-01-10T00:23:06;100849.22;;;-3.04;100.00
49945;BME280;35838;49.134;9.212;2024-01-10T00:24:38;100842.47;;;-3.04;100.00
49945;BME280;35838;49.134;9.212;2024-01-10T00:26:11;100852.53;;;-3.05;100.00
49945;BME280;35838;49.134;9.212;2024-01-10T00:27:43;100852.31;;;-3.08;100.00
49945;BME280;35838;49.134;9.212;2024-01-10T00:29:16;100850.00;;;-3.05;100.00
49945;BME280;35838;49.134;9.212;2024-01-10T00:30:47;100854.38;;;-3.03;100.00
49945;BME280;35838;49.134;9.212;2024-01-10T00:32:21;100847.44;;;-3.05;100.00
49945;BME280;35838;49.134;9.212;2024-01-10T00:33:52;100844.63;;;-2.96;100.00
49945;BME280;35838;49.134;9.212;2024-01-10T00:35:28;100851.56;;;-2.94;100.00
49945;BME280;35838;49.134;9.212;2024-01-10T00:37:02;100850.59;;;-2.96;100.00
49945;BME280;35838;49.134;9.212;2024-01-10T00:38:33;100853.69;;;-3.00;100.00
49945;BME280;35838;49.134;9.212;2024-01-10T00:40:07;100852.53;;;-3.05;100.00
49945;BME280;35838;49.134;9.212;2024-01-10T00:41:41;100850.56;;;-3.09;100.00
49945;BME280;35838;49.134;9.212;2024-01-10T00:43:12;100858.75;;;-3.13;100.00
49945;BME280;35838;49.134;9.212;2024-01-10T00:44:45;100857.78;;;-3.16;100.00
49945;BME280;35838;49.134;9.212;2024-01-10T00:46:16;100850.25;;;-3.14;100.00
49945;BME280;35838;49.134;9.212;2024-01-10T00:47:50;100853.69;;;-3.13;100.00
49945;BME280;35838;49.134;9.212;2024-01-10T00:49:21;100851.22;;;-3.12;100.00
49945;BME280;35838;49.134;9.212;2024-01-10T00:50:57;100856.31;;;-3.12;100.00
49945;BME280;35838;49.134;9.212;2024-01-10T00:52:28;100854.16;;;-3.06;100.00
49945;BME280;35838;49.134;9.212;2024-01-10T00:54:02;100850.63;;;-3.08;100.00
49945;BME280;35838;49.134;9.212;2024-01-10T00:55:33;100843.81;;;-3.09;100.00
49945;BME280;35838;49.134;9.212;2024-01-10T00:57:07;100851.44;;;-3.09;100.00
49945;BME280;35838;49.134;9.212;2024-01-10T00:58:38;100857.78;;;-3.16;100.00
49945;BME280;35838;49.134;9.212;2024-01-10T01:00:12;100864.78;;;-3.25;100.00
49945;BME280;35838;49.134;9.212;2024-01-10T01:01:43;100862.72;;;-3.17;100.00
49945;BME280;35838;49.134;9.212;2024-01-10T01:03:17;100864.41;;;-3.18;100.00
49945;BME280;35838;49.134;9.212;2024-01-10T01:04:48;100868.72;;;-3.17;100.00
49945;BME280;35838;49.134;9.212;2024-01-10T01:06:24;100865.56;;;-3.12;100.00
49945;BME280;35838;49.134;9.212;2024-01-10T01:07:55;100863.03;;;-3.12;100.00
49945;BME280;35838;49.134;9.212;2024-01-10T01:09:29;100865.88;;;-3.08;100.00
49945;BME280;35838;49.134;9.212;2024-01-10T01:11:02;100867.94;;;-3.16;100.00
49945;BME280;35838;49.134;9.212;2024-01-10T01:12:33;100870.34;;;-3.17;100.00
49945;BME280;35838;49.134;9.212;2024-01-10T01:14:07;100869.25;;;-3.21;100.00
49945;BME280;35838;49.134;9.212;2024-01-10T01:15:38;100868.88;;;-3.27;100.00
49945;BME280;35838;49.134;9.212;2024-01-10T01:17:12;100867.53;;;-3.22;100.00
49945;BME280;35838;49.134;9.212;2024-01-10T01:18:43;100873.47;;;-3.21;100.00
49945;BME280;35838;49.134;9.212;2024-01-10T01:20:16;100867.34;;;-3.11;100.00
49945;BME280;35838;49.134;9.212;2024-01-10T01:21:50;100873.41;;;-3.09;100.00
49945;BME280;35838;49.134;9.212;2024-01-10T01:23:24;100874.00;;;-3.13;100.00
49945;BME280;35838;49.134;9.212;2024-01-10T01:24:55;100874.41;;;-3.07;100.00
49945;BME280;35838;49.134;9.212;2024-01-10T01:26:28;100882.41;;;-3.15;100.00
49945;BME280;35838;49.134;9.212;2024-01-10T01:27:59;100873.19;;;-3.12;100.00
49945;BME280;35838;49.134;9.212;2024-01-10T01:29:33;100876.25;;;-3.05;100.00
49945;BME280;35838;49.134;9.212;2024-01-10T01:31:04;100877.16;;;-3.04;100.00
49945;BME280;35838;49.134;9.212;2024-01-10T01:32:38;100867.66;;;-3.07;100.00
49945;BME280;35838;49.134;9.212;2024-01-10T01:34:09;100874.78;;;-3.01;100.00
49945;BME280;35838;49.134;9.212;2024-01-10T01:35:42;100863.38;;;-2.94;100.00
49945;BME280;35838;49.134;9.212;2024-01-10T01:37:16;100863.38;;;-2.94;100.00
49945;BME280;35838;49.134;9.212;2024-01-10T01:38:50;100863.28;;;-2.96;100.00
49945;BME280;35838;49.134;9.212;2024-01-10T01:40:21;100862.50;;;-2.95;100.00
49945;BME280;35838;49.134;9.212;2024-01-10T01:41:55;100866.03;;;-2.93;100.00
49945;BME280;35838;49.134;9.212;2024-01-10T01:43:26;100861.38;;;-2.87;100.00
49945;BME280;35838;49.134;9.212;2024-01-10T01:44:59;100862.41;;;-2.96;100.00
49945;BME280;35838;49.134;9.212;2024-01-10T01:46:33;100861.72;;;-2.94;100.00
49945;BME280;35838;49.134;9.212;2024-01-10T01:48:05;100868.16;;;-2.99;100.00
49945;BME280;35838;49.134;9.212;2024-01-10T01:49:39;100859.38;;;-3.04;100.00
49945;BME280;35838;49.134;9.212;2024-01-10T01:51:10;100870.31;;;-3.05;100.00
49945;BME280;35838;49.134;9.212;2024-01-10T01:52:48;100867.00;;;-3.04;100.00
49945;BME280;35838;49.134;9.212;2024-01-10T01:54:20;100862.69;;;-3.05;100.00
49945;BME280;35838;49.134;9.212;2024-01-10T01:55:54;100864.31;;;-3.06;100.00
49945;BME280;35838;49.134;9.212;2024-01-10T01:57:25;100857.00;;;-3.01;100.00
49945;BME280;35838;49.134;9.212;2024-01-10T01:58:58;100855.94;;;-3.05;100.00
49945;BME280;35838;49.134;9.212;2024-01-10T02:00:30;100851.75;;;-3.04;100.00
49945;BME280;35838;49.134;9.212;2024-01-10T02:02:04;100853.47;;;-3.03;100.00
49945;BME280;35838;49.134;9.212;2024-01-10T02:03:35;100851.84;;;-3.03;100.00
49945;BME280;35838;49.134;9.212;2024-01-10T02:05:09;100847.84;;;-2.99;100.00
49945;BME280;35838;49.134;9.212;2024-01-10T02:06:40;100860.56;;;-3.24;100.00
49945;BME280;35838;49.134;9.212;2024-01-10T02:08:16;100863.03;;;-3.12;100.00
49945;BME280;35838;49.134;9.212;2024-01-10T02:09:47;100855.63;;;-3.09;100.00
49945;BME280;35838;49.134;9.212;2024-01-10T02:11:20;100865.00;;;-3.08;100.00
49945;BME280;35838;49.134;9.212;2024-01-10T02:12:51;100854.28;;;-3.04;100.00
49945;BME280;35838;49.134;9.212;2024-01-10T02:14:25;100846.25;;;-3.10;100.00
49945;BME280;35838;49.134;9.212;2024-01-10T02:15:56;100863.34;;;-3.08;100.00
49945;BME280;35838;49.134;9.212;2024-01-10T02:17:30;100859.72;;;-3.11;100.00
49945;BME280;35838;49.134;9.212;2024-01-10T02:19:01;100859.72;;;-3.11;100.00
49945;BME280;35838;49.134;9.212;2024-01-10T02:20:35;100856.22;;;-3.13;100.00
49945;BME280;35838;49.134;9.212;2024-01-10T02:22:06;100851.16;;;-3.13;100.00
49945;BME280;35838;49.134;9.212;2024-01-10T02:23:44;100843.03;;;-3.08;100.00
49945;BME280;35838;49.134;9.212;2024-01-10T02:25:17;100848.00;;;-3.09;100.00
49945;BME280;35838;49.134;9.212;2024-01-10T02:26:52;100840.69;;;-3.05;100.00
49945;BME280;35838;49.134;9.212;2024-01-10T02:28:23;100844.47;;;-3.11;100.00
49945;BME280;35838;49.134;9.212;2024-01-10T02:29:57;100842.72;;;-3.12;100.00
49945;BME280;35838;49.134;9.212;2024-01-10T02:31:28;100857.19;;;-3.11;100.00
49945;BME280;35838;49.134;9.212;2024-01-10T02:33:02;100838.16;;;-3.05;100.00
49945;BME280;35838;49.134;9.212;2024-01-10T02:34:33;100843.31;;;-3.03;100.00
49945;BME280;35838;49.134;9.212;2024-01-10T02:36:07;100839.81;;;-3.05;100.00
49945;BME280;35838;49.134;9.212;2024-01-10T02:37:38;100842.56;;;-3.02;100.00
49945;BME280;35838;49.134;9.212;2024-01-10T02:39:11;100849.22;;;-3.04;100.00
49945;BME280;35838;49.134;9.212;2024-01-10T02:40:45;100834.53;;;-3.08;100.00
49945;BME280;35838;49.134;9.212;2024-01-10T02:42:19;100834.75;;;-3.05;100.00
49945;BME280;35838;49.134;9.212;2024-01-10T02:43:50;100833.84;;;-3.06;100.00
49945;BME280;35838;49.134;9.212;2024-01-10T02:45:23;100833.66;;;-3.09;100.00
49945;BME280;35838;49.134;9.212;2024-01-10T02:46:55;100834.53;;;-3.08;100.00
49945;BME280;35838;49.134;9.212;2024-01-10T02:48:28;100833.16;;;-3.03;100.00
49945;BME280;35838;49.134;9.212;2024-01-10T02:49:59;100835.63;;;-3.05;100.00
49945;BME280;35838;49.134;9.212;2024-01-10T02:51:34;100830.28;;;-2.96;100.00
49945;BME280;35838;49.134;9.212;2024-01-10T02:53:05;100832.38;;;-3.02;100.00
49945;BME280;35838;49.134;9.212;2024-01-10T02:54:38;100827.59;;;-2.97;100.00
49945;BME280;35838;49.134;9.212;2024-01-10T02:56:12;100833.16;;;-3.03;100.00
49945;BME280;35838;49.134;9.212;2024-01-10T02:57:46;100830.28;;;-2.96;100.00
49945;BME280;35838;49.134;9.212;2024-01-10T02:59:19;100828.59;;;-2.95;100.00
49945;BME280;35838;49.134;9.212;2024-01-10T03:00:50;100826.91;;;-2.95;100.00
49945;BME280;35838;49.134;9.212;2024-01-10T03:02:24;100822.06;;;-2.92;100.00
49945;BME280;35838;49.134;9.212;2024-01-10T03:03:55;100823.03;;;-2.90;100.00
49945;BME280;35838;49.134;9.212;2024-01-10T03:05:29;100815.97;;;-2.94;100.00
49945;BME280;35838;49.134;9.212;2024-01-10T03:07:00;100819.22;;;-2.96;100.00
49945;BME280;35838;49.134;9.212;2024-01-10T03:08:33;100818.75;;;-2.91;100.00
49945;BME280;35838;49.134;9.212;2024-01-10T03:10:05;100820.28;;;-2.93;100.00
49945;BME280;35838;49.134;9.212;2024-01-10T03:11:41;100818.53;;;-2.94;100.00
49945;BME280;35838;49.134;9.212;2024-01-10T03:13:12;100823.44;;;-2.97;100.00
49945;BME280;35838;49.134;9.212;2024-01-10T03:14:46;100819.81;;;-3.01;100.00
49945;BME280;35838;49.134;9.212;2024-01-10T03:17:50;100814.91;;;-3.11;100.00
49945;BME280;35838;49.134;9.212;2024-01-10T03:19:23;100811.88;;;-3.05;100.00
49945;BME280;35838;49.134;9.212;2024-01-10T03:20:54;100811.75;;;-3.07;100.00
49945;BME280;35838;49.134;9.212;2024-01-10T03:22:28;100805.13;;;-3.05;100.00
49945;BME280;35838;49.134;9.212;2024-01-10T03:24:00;100808.56;;;-3.04;100.00
49945;BME280;35838;49.134;9.212;2024-01-10T03:25:34;100805.22;;;-3.03;100.00
49945;BME280;35838;49.134;9.212;2024-01-10T03:27:08;100805.22;;;-3.03;100.00
49945;BME280;35838;49.134;9.212;2024-01-10T03:28:41;100808.56;;;-3.04;100.00
49945;BME280;35838;49.134;9.212;2024-01-10T03:30:12;100806.81;;;-3.05;100.00
49945;BME280;35838;49.134;9.212;2024-01-10T03:31:48;100806.03;;;-3.04;100.00
49945;BME280;35838;49.134;9.212;2024-01-10T03:33:19;100800.53;;;-3.10;100.00
49945;BME280;35838;49.134;9.212;2024-01-10T03:34:53;100809.53;;;-3.16;100.00
49945;BME280;35838;49.134;9.212;2024-01-10T03:36:24;100802.09;;;-3.12;100.00
49945;BME280;35838;49.134;9.212;2024-01-10T03:37:58;100806.75;;;-3.19;100.00
49945;BME280;35838;49.134;9.212;2024-01-10T03:39:29;100807.66;;;-3.18;100.00
49945;BME280;35838;49.134;9.212;2024-01-10T03:41:03;100801.91;;;-3.16;100.00
49945;BME280;35838;49.134;9.212;2024-01-10T03:42:37;100806.00;;;-3.18;100.00
49945;BME280;35838;49.134;9.212;2024-01-10T03:44:10;100802.38;;;-3.21;100.00
49945;BME280;35838;49.134;9.212;2024-01-10T03:45:41;100807.97;;;-3.13;100.00
49945;BME280;35838;49.134;9.212;2024-01-10T03:47:15;100805.22;;;-3.17;100.00
49945;BME280;35838;49.134;9.212;2024-01-10T03:48:46;100805.78;;;-3.21;100.00
49945;BME280;35838;49.134;9.212;2024-01-10T03:50:22;100805.91;;;-3.19;100.00
49945;BME280;35838;49.134;9.212;2024-01-10T03:51:53;100802.16;;;-3.24;100.00
49945;BME280;35838;49.134;9.212;2024-01-10T03:53:27;100800.81;;;-3.19;100.00
49945;BME280;35838;49.134;9.212;2024-01-10T03:54:58;100801.69;;;-3.19;100.00
49945;BME280;35838;49.134;9.212;2024-01-10T03:56:31;100801.28;;;-3.25;100.00
49945;BME280;35838;49.134;9.212;2024-01-10T03:58:05;100796.91;;;-3.27;100.00
49945;BME280;35838;49.134;9.212;2024-01-10T03:59:39;100795.00;;;-3.30;100.00
49945;BME280;35838;49.134;9.212;2024-01-10T04:01:10;100793.59;;;-3.26;100.00
49945;BME280;35838;49.134;9.212;2024-01-10T04:02:44;100795.13;;;-3.28;100.00
49945;BME280;35838;49.134;9.212;2024-01-10T04:04:15;100794.06;;;-3.32;100.00
49945;BME280;35838;49.134;9.212;2024-01-10T04:05:48;100798.53;;;-3.28;100.00
49945;BME280;35838;49.134;9.212;2024-01-10T04:07:19;100800.41;;;-3.25;100.00
49945;BME280;35838;49.134;9.212;2024-01-10T04:08:53;100803.94;;;-3.23;100.00
49945;BME280;35838;49.134;9.212;2024-01-10T04:10:24;100806.38;;;-3.25;100.00
49945;BME280;35838;49.134;9.212;2024-01-10T04:11:58;100800.59;;;-3.22;100.00
49945;BME280;35838;49.134;9.212;2024-01-10T04:13:31;100792.00;;;-3.24;100.00
49945;BME280;35838;49.134;9.212;2024-01-10T04:15:05;100800.41;;;-3.25;100.00
49945;BME280;35838;49.134;9.212;2024-01-10T04:16:37;100803.25;;;-3.21;100.00
49945;BME280;35838;49.134;9.212;2024-01-10T04:18:11;100800.81;;;-3.19;100.00
49945;BME280;35838;49.134;9.212;2024-01-10T04:19:42;100797.28;;;-3.21;100.00
49945;BME280;35838;49.134;9.212;2024-01-10T04:21:15;100796.81;;;-3.16;100.00
49945;BME280;35838;49.134;9.212;2024-01-10T04:22:47;100792.81;;;-3.12;100.00
49945;BME280;35838;49.134;9.212;2024-01-10T04:24:20;100796.03;;;-3.15;100.00
49945;BME280;35838;49.134;9.212;2024-01-10T04:25:51;100790.53;;;-3.21;100.00
49945;BME280;35838;49.134;9.212;2024-01-10T04:27:25;100798.16;;;-3.21;100.00
49945;BME280;35838;49.134;9.212;2024-01-10T04:28:59;100795.75;;;-3.19;100.00
49945;BME280;35838;49.134;9.212;2024-01-10T04:30:32;100796.69;;;-3.17;100.00
49945;BME280;35838;49.134;9.212;2024-01-10T04:32:04;100796.59;;;-3.19;100.00
49945;BME280;35838;49.134;9.212;2024-01-10T04:33:37;100796.44;;;-3.22;100.00
49945;BME280;35838;49.134;9.212;2024-01-10T04:35:08;100796.22;;;-3.25;100.00
49945;BME280;35838;49.134;9.212;2024-01-10T04:36:42;100797.28;;;-3.21;100.00
49945;BME280;35838;49.134;9.212;2024-01-10T04:38:16;100797.13;;;-3.11;100.00
49945;BME280;35838;49.134;9.212;2024-01-10T04:39:49;100801.59;;;-3.07;100.00
49945;BME280;35838;49.134;9.212;2024-01-10T04:41:20;100800.94;;;-3.04;100.00
49945;BME280;35838;49.134;9.212;2024-01-10T04:42:54;100796.91;;;-3.14;100.00
49945;BME280;35838;49.134;9.212;2024-01-10T04:44:28;100797.44;;;-3.06;100.00
49945;BME280;35838;49.134;9.212;2024-01-10T04:46:01;100798.00;;;-3.10;100.00
49945;BME280;35838;49.134;9.212;2024-01-10T04:47:32;100800.75;;;-3.07;100.00
49945;BME280;35838;49.134;9.212;2024-01-10T04:49:06;100804.28;;;-3.05;100.00
49945;BME280;35838;49.134;9.212;2024-01-10T04:50:37;100800.75;;;-3.07;100.00
49945;BME280;35838;49.134;9.212;2024-01-10T04:52:11;100803.50;;;-3.04;100.00
49945;BME280;35838;49.134;9.212;2024-01-10T04:53:43;100797.31;;;-3.08;100.00
49945;BME280;35838;49.134;9.212;2024-01-10T04:55:16;100802.50;;;-3.06;100.00
49945;BME280;35838;49.134;9.212;2024-01-10T04:56:47;100804.34;;;-3.04;100.00
49945;BME280;35838;49.134;9.212;2024-01-10T04:58:21;100803.28;;;-3.07;100.00
49945;BME280;35838;49.134;9.212;2024-01-10T04:59:54;100804.63;;;-3.12;100.00
49945;BME280;35838;49.134;9.212;2024-01-10T05:01:29;100806.28;;;-3.13;100.00
49945;BME280;35838;49.134;9.212;2024-01-10T05:03:00;100807.59;;;-3.06;100.00
49945;BME280;35838;49.134;9.212;2024-01-10T05:04:34;100805.72;;;-3.09;100.00
49945;BME280;35838;49.134;9.212;2024-01-10T05:06:07;100811.75;;;-3.07;100.00
49945;BME280;35838;49.134;9.212;2024-01-10T05:07:41;100803.75;;;-3.00;100.00
49945;BME280;35838;49.134;9.212;2024-01-10T05:09:15;100810.91;;;-2.94;100.00
49945;BME280;35838;49.134;9.212;2024-01-10T05:10:46;100809.25;;;-2.93;100.00
49945;BME280;35838;49.134;9.212;2024-01-10T05:12:21;100810.03;;;-2.94;100.00
49945;BME280;35838;49.134;9.212;2024-01-10T05:13:54;100809.06;;;-2.96;100.00
49945;BME280;35838;49.134;9.212;2024-01-10T05:15:28;100805.81;;;-2.94;100.00
49945;BME280;35838;49.134;9.212;2024-01-10T05:17:01;100804.44;;;-3.02;100.00
49945;BME280;35838;49.134;9.212;2024-01-10T05:18:34;100802.03;;;-3.01;100.00
49945;BME280;35838;49.134;9.212;2024-01-10T05:20:08;100809.81;;;-2.97;100.00
49945;BME280;35838;49.134;9.212;2024-01-10T05:21:39;100804.47;;;-2.89;100.00
49945;BME280;35838;49.134;9.212;2024-01-10T05:23:13;100806.41;;;-2.85;100.00
49945;BME280;35838;49.134;9.212;2024-01-10T05:24:44;100802.31;;;-2.83;100.00
49945;BME280;35838;49.134;9.212;2024-01-10T05:26:18;100810.94;;;-2.80;100.00
49945;BME280;35838;49.134;9.212;2024-01-10T05:27:49;100807.09;;;-2.87;100.00
49945;BME280;35838;49.134;9.212;2024-01-10T05:29:22;100806.63;;;-2.81;100.00
49945;BME280;35838;49.134;9.212;2024-01-10T05:30:57;100807.41;;;-2.83;100.00
49945;BME280;35838;49.134;9.212;2024-01-10T05:32:31;100810.16;;;-2.79;100.00
49945;BME280;35838;49.134;9.212;2024-01-10T05:34:02;100813.00;;;-2.75;100.00
49945;BME280;35838;49.134;9.212;2024-01-10T05:35:35;100808.84;;;-2.73;100.00
49945;BME280;35838;49.134;9.212;2024-01-10T05:37:06;100819.34;;;-2.81;100.00
49945;BME280;35838;49.134;9.212;2024-01-10T05:38:40;100808.28;;;-2.82;100.00
49945;BME280;35838;49.134;9.212;2024-01-10T05:40:14;100811.91;;;-2.78;100.00
49945;BME280;35838;49.134;9.212;2024-01-10T05:41:45;100814.84;;;-2.72;100.00
49945;BME280;35838;49.134;9.212;2024-01-10T05:43:18;100815.91;;;-2.69;100.00
49945;BME280;35838;49.134;9.212;2024-01-10T05:44:49;100810.75;;;-2.70;100.00
49945;BME280;35838;49.134;9.212;2024-01-10T05:46:26;100810.34;;;-2.63;100.00
49945;BME280;35838;49.134;9.212;2024-01-10T05:47:59;100809.28;;;-2.66;100.00
49945;BME280;35838;49.134;9.212;2024-01-10T05:49:30;100809.56;;;-2.62;100.00
49945;BME280;35838;49.134;9.212;2024-01-10T05:51:04;100810.63;;;-2.58;100.00
49945;BME280;35838;49.134;9.212;2024-01-10T05:52:38;100804.66;;;-2.59;100.00
49945;BME280;35838;49.134;9.212;2024-01-10T05:54:09;100804.56;;;-2.60;100.00
49945;BME280;35838;49.134;9.212;2024-01-10T05:55:43;100813.28;;;-2.70;100.00
49945;BME280;35838;49.134;9.212;2024-01-10T05:57:14;100802.81;;;-2.61;100.00
49945;BME280;35838;49.134;9.212;2024-01-10T05:58:48;100808.19;;;-2.57;100.00
49945;BME280;35838;49.134;9.212;2024-01-10T06:00:21;100809.44;;;-2.63;100.00
49945;BME280;35838;49.134;9.212;2024-01-10T06:01:57;100806.63;;;-2.68;100.00
49945;BME280;35838;49.134;9.212;2024-01-10T06:03:31;100806.44;;;-2.71;100.00
49945;BME280;35838;49.134;9.212;2024-01-10T06:05:02;100806.22;;;-2.74;100.00
49945;BME280;35838;49.134;9.212;2024-01-10T06:06:36;100804.69;;;-2.72;100.00
49945;BME280;35838;49.134;9.212;2024-01-10T06:08:08;100807.13;;;-2.74;100.00
49945;BME280;35838;49.134;9.212;2024-01-10T06:09:41;100803.47;;;-2.77;100.00
49945;BME280;35838;49.134;9.212;2024-01-10T06:11:14;100810.25;;;-2.78;100.00
49945;BME280;35838;49.134;9.212;2024-01-10T06:12:48;100806.22;;;-2.74;100.00
49945;BME280;35838;49.134;9.212;2024-01-10T06:14:19;100804.88;;;-2.69;100.00
49945;BME280;35838;49.134;9.212;2024-01-10T06:15:53;100804.75;;;-2.71;100.00
49945;BME280;35838;49.134;9.212;2024-01-10T06:17:26;100800.38;;;-2.73;100.00
49945;BME280;35838;49.134;9.212;2024-01-10T06:19:00;100804.59;;;-2.74;100.00
49945;BME280;35838;49.134;9.212;2024-01-10T06:20:31;100809.97;;;-2.69;100.00
49945;BME280;35838;49.134;9.212;2024-01-10T06:22:08;100813.66;;;-2.64;100.00
49945;BME280;35838;49.134;9.212;2024-01-10T06:23:39;100809.56;;;-2.75;100.00
49945;BME280;35838;49.134;9.212;2024-01-10T06:25:13;100800.94;;;-2.77;100.00
49945;BME280;35838;49.134;9.212;2024-01-10T06:26:44;100806.31;;;-2.73;100.00
49945;BME280;35838;49.134;9.212;2024-01-10T06:28:17;100806.53;;;-2.70;100.00
49945;BME280;35838;49.134;9.212;2024-01-10T06:29:48;100805.66;;;-2.70;100.00
49945;BME280;35838;49.134;9.212;2024-01-10T06:31:22;100807.22;;;-2.72;100.00
49945;BME280;35838;49.134;9.212;2024-01-10T06:32:58;100808.59;;;-2.64;100.00
49945;BME280;35838;49.134;9.212;2024-01-10T06:34:30;100812.88;;;-2.63;100.00
49945;BME280;35838;49.134;9.212;2024-01-10T06:36:04;100811.72;;;-2.55;100.00
49945;BME280;35838;49.134;9.212;2024-01-10T06:37:35;100808.78;;;-2.61;100.00
49945;BME280;35838;49.134;9.212;2024-01-10T06:39:09;100811.91;;;-2.65;100.00
49945;BME280;35838;49.134;9.212;2024-01-10T06:40:43;100815.91;;;-2.69;100.00
49945;BME280;35838;49.134;9.212;2024-01-10T06:42:15;100814.84;;;-2.72;100.00
49945;BME280;35838;49.134;9.212;2024-01-10T06:43:49;100818.47;;;-2.69;100.00
49945;BME280;35838;49.134;9.212;2024-01-10T06:45:20;100818.47;;;-2.69;100.00
49945;BME280;35838;49.134;9.212;2024-01-10T06:46:53;100821.69;;;-2.71;100.00
49945;BME280;35838;49.134;9.212;2024-01-10T06:48:27;100825.88;;;-2.72;100.00
49945;BME280;35838;49.134;9.212;2024-01-10T06:50:02;100822.97;;;-2.64;100.00
49945;BME280;35838;49.134;9.212;2024-01-10T06:51:33;100823.16;;;-2.61;100.00
49945;BME280;35838;49.134;9.212;2024-01-10T06:53:07;100820.50;;;-2.63;100.00
49945;BME280;35838;49.134;9.212;2024-01-10T06:54:41;100819.03;;;-2.59;100.00
49945;BME280;35838;49.134;9.212;2024-01-10T06:56:12;100813.28;;;-2.57;100.00
49945;BME280;35838;49.134;9.212;2024-01-10T06:57:46;100822.44;;;-2.59;100.00
49945;BME280;35838;49.134;9.212;2024-01-10T06:59:20;100818.25;;;-2.72;100.00
49945;BME280;35838;49.134;9.212;2024-01-10T07:00:53;100824.31;;;-2.70;100.00
49945;BME280;35838;49.134;9.212;2024-01-10T07:02:24;100823.44;;;-2.57;100.00
49945;BME280;35838;49.134;9.212;2024-01-10T07:04:01;100829.13;;;-2.61;100.00
49945;BME280;35838;49.134;9.212;2024-01-10T07:05:32;100841.22;;;-2.57;100.00
49945;BME280;35838;49.134;9.212;2024-01-10T07:07:05;100837.91;;;-2.56;100.00
49945;BME280;35838;49.134;9.212;2024-01-10T07:08:37;100835.06;;;-2.87;100.00
49945;BME280;35838;49.134;9.212;2024-01-10T07:10:10;100842.03;;;-2.71;100.00
49945;BME280;35838;49.134;9.212;2024-01-10T07:11:42;100841.53;;;-2.65;100.00
49945;BME280;35838;49.134;9.212;2024-01-10T07:13:15;100840.63;;;-2.66;100.00
49945;BME280;35838;49.134;9.212;2024-01-10T07:14:46;100841.53;;;-2.52;100.00
49945;BME280;35838;49.134;9.212;2024-01-10T07:16:20;100844.28;;;-2.49;100.00
49945;BME280;35838;49.134;9.212;2024-01-10T07:17:56;100843.38;;;-2.49;100.00
49945;BME280;35838;49.134;9.212;2024-01-10T07:19:29;100847.69;;;-2.48;100.00
49945;BME280;35838;49.134;9.212;2024-01-10T07:21:03;100850.72;;;-2.54;100.00
49945;BME280;35838;49.134;9.212;2024-01-10T07:22:34;100851.00;;;-2.49;100.00
49945;BME280;35838;49.134;9.212;2024-01-10T07:24:10;100856.22;;;-2.48;100.00
49945;BME280;35838;49.134;9.212;2024-01-10T07:25:41;100853.34;;;-2.39;100.00
49945;BME280;35838;49.134;9.212;2024-01-10T07:27:14;100853.66;;;-2.34;100.00
49945;BME280;35838;49.134;9.212;2024-01-10T07:28:45;100850.41;;;-2.32;100.00
49945;BME280;35838;49.134;9.212;2024-01-10T07:30:19;100854.53;;;-2.34;100.00
49945;BME280;35838;49.134;9.212;2024-01-10T07:31:50;100854.72;;;-2.31;100.00
49945;BME280;35838;49.134;9.212;2024-01-10T07:33:25;100856.56;;;-2.28;100.00
49945;BME280;35838;49.134;9.212;2024-01-10T07:34:58;100854.91;;;-2.28;100.00
49945;BME280;35838;49.134;9.212;2024-01-10T07:36:32;100850.69;;;-2.27;100.00
49945;BME280;35838;49.134;9.212;2024-01-10T07:38:04;100856.84;;;-2.24;100.00
49945;BME280;35838;49.134;9.212;2024-01-10T07:39:38;100862.06;;;-2.22;100.00
49945;BME280;35838;49.134;9.212;2024-01-10T07:41:09;100860.38;;;-2.22;100.00
49945;BME280;35838;49.134;9.212;2024-01-10T07:42:43;100860.50;;;-2.33;100.00
49945;BME280;35838;49.134;9.212;2024-01-10T07:44:14;100860.47;;;-2.20;100.00
49945;BME280;35838;49.134;9.212;2024-01-10T07:45:47;100863.91;;;-2.19;100.00
49945;BME280;35838;49.134;9.212;2024-01-10T07:47:18;100860.47;;;-2.20;100.00
49945;BME280;35838;49.134;9.212;2024-01-10T07:48:52;100863.91;;;-2.19;100.00
49945;BME280;35838;49.134;9.212;2024-01-10T07:50:26;100866.84;;;-2.27;100.00
49945;BME280;35838;49.134;9.212;2024-01-10T07:51:59;100858.81;;;-2.19;100.00
49945;BME280;35838;49.134;9.212;2024-01-10T07:53:33;100869.38;;;-2.13;100.00
49945;BME280;35838;49.134;9.212;2024-01-10T07:55:04;100856.38;;;-2.18;100.00
49945;BME280;35838;49.134;9.212;2024-01-10T07:56:39;100859.03;;;-2.16;100.00
49945;BME280;35838;49.134;9.212;2024-01-10T07:58:13;100865.78;;;-2.44;100.00
49945;BME280;35838;49.134;9.212;2024-01-10T07:59:44;100858.06;;;-2.45;100.00
49945;BME280;35838;49.134;9.212;2024-01-10T08:01:18;100860.97;;;-2.39;100.00